Time;durP1;ratioP1;P1;durP2;ratioP2;P2;SDS_P1;SDS_P2;PMS_P1;PMS_P2;Temp;Humidity;BMP_temperature;BMP_pressure;BME280_temperature;BME280_humidity;BME280_pressure;Samples;Min_cycle;Max_cycle;Signal;HPM_P1;HPM_P2
2021/12/25 00:01:16;;;;;;;71.25;33.97;;;;;;;;;;5025849;28;20041;-81
2021/12/25 00:03:43;;;;;;;76.10;34.67;;;;;;;;;;5018487;28;20088;-82
2021/12/25 00:06:10;;;;;;;83.95;38.10;;;;;;;;;;5033087;28;20453;-81
2021/12/25 00:08:36;;;;;;;75.55;34.45;;;;;;;;;;5031955;28;20372;-82
2021/12/25 00:11:05;;;;;;;74.43;36.67;;;;;;;;;;5032068;28;20055;-82
2021/12/25 00:13:32;;;;;;;74.20;35.03;;;;;;;;;;5034514;28;20033;-81
2021/12/25 00:15:58;;;;;;;72.78;34.53;;;;;;;;;;5035407;28;20473;-81
2021/12/25 00:18:24;;;;;;;75.07;34.10;;;;;;;;;;5034423;28;20034;-81
2021/12/25 00:20:51;;;;;;;72.53;34.28;;;;;;;;;;5033457;28;20021;-81
2021/12/25 00:23:17;;;;;;;71.78;33.78;;;;;;;;;;5032753;28;20048;-82
2021/12/25 00:26:35;;;;;;;73.90;36.55;;;;;;;;;;5032517;28;20082;-82
2021/12/25 00:28:52;;;;;;;67.90;34.75;;;;;;;;;;5027756;28;20481;-80
2021/12/25 00:36:12;;;;;;;66.45;32.63;;;;;;;;;;5039627;28;20056;-81
2021/12/25 00:38:42;;;;;;;61.55;31.55;;;;;;;;;;5007112;28;20027;-82
2021/12/25 00:41:08;;;;;;;63.03;30.38;;;;;;;;;;5023949;28;20049;-82
2021/12/25 00:43:34;;;;;;;63.45;30.55;;;;;;;;;;5007728;28;20025;-82
2021/12/25 00:46:01;;;;;;;62.92;31.80;;;;;;;;;;5003944;28;20052;-81
2021/12/25 00:48:27;;;;;;;63.20;30.45;;;;;;;;;;5026066;28;20030;-82
2021/12/25 00:50:54;;;;;;;63.83;31.77;;;;;;;;;;5010382;28;20021;-80
2021/12/25 00:53:21;;;;;;;65.50;30.85;;;;;;;;;;5023481;28;20033;-82
2021/12/25 00:55:47;;;;;;;60.42;27.92;;;;;;;;;;5019860;28;20354;-82
2021/12/25 00:58:13;;;;;;;65.68;33.60;;;;;;;;;;5007907;28;20024;-82
2021/12/25 01:00:40;;;;;;;68.90;31.90;;;;;;;;;;5028264;28;20010;-81
2021/12/25 01:03:07;;;;;;;63.67;30.65;;;;;;;;;;5024519;28;20075;-82
2021/12/25 01:05:33;;;;;;;75.05;32.78;;;;;;;;;;5008178;28;20028;-81
2021/12/25 01:08:00;;;;;;;69.03;33.17;;;;;;;;;;5024651;28;20033;-82
2021/12/25 01:10:26;;;;;;;60.72;30.33;;;;;;;;;;5025276;28;20090;-82
2021/12/25 01:15:30;;;;;;;65.25;31.05;;;;;;;;;;5022480;28;20022;-83
2021/12/25 01:18:12;;;;;;;60.80;31.00;;;;;;;;;;4994817;28;20042;-82
2021/12/25 01:31:40;;;;;;;65.32;33.30;;;;;;;;;;5005653;28;20065;-81
2021/12/25 01:34:42;;;;;;;71.32;35.42;;;;;;;;;;4991988;28;20037;-81
2021/12/25 01:37:15;;;;;;;70.32;34.03;;;;;;;;;;5022191;28;20034;-80
2021/12/25 01:47:55;;;;;;;80.85;37.92;;;;;;;;;;5020649;28;20037;-81
2021/12/25 01:50:23;;;;;;;81.75;40.83;;;;;;;;;;5017485;28;20045;-81
2021/12/25 01:52:50;;;;;;;83.18;38.75;;;;;;;;;;5014440;28;20036;-82
2021/12/25 01:55:19;;;;;;;80.03;39.70;;;;;;;;;;5015012;28;20028;-81
2021/12/25 01:57:45;;;;;;;79.80;40.25;;;;;;;;;;5015996;28;20025;-81
2021/12/25 02:00:15;;;;;;;88.80;40.45;;;;;;;;;;5015681;28;20045;-83
2021/12/25 02:02:42;;;;;;;90.07;41.95;;;;;;;;;;5013107;28;20057;-83
2021/12/25 02:05:08;;;;;;;84.32;42.30;;;;;;;;;;5015598;28;20037;-81
2021/12/25 02:07:34;;;;;;;83.35;41.85;;;;;;;;;;5015531;28;20045;-83
2021/12/25 02:10:01;;;;;;;80.43;41.75;;;;;;;;;;4992842;28;20524;-82
2021/12/25 02:12:27;;;;;;;82.55;39.72;;;;;;;;;;5012495;28;20033;-82
2021/12/25 02:14:54;;;;;;;86.07;43.05;;;;;;;;;;5014432;28;20072;-82
2021/12/25 02:17:27;;;;;;;85.15;40.47;;;;;;;;;;5019046;28;20424;-81
2021/12/25 02:20:14;;;;;;;78.13;40.70;;;;;;;;;;5033358;28;20550;-81
2021/12/25 02:22:40;;;;;;;80.38;40.22;;;;;;;;;;5017316;28;20038;-81
2021/12/25 02:25:07;;;;;;;82.53;41.53;;;;;;;;;;5026563;28;20033;-82
2021/12/25 02:27:33;;;;;;;88.30;39.88;;;;;;;;;;5011508;28;20033;-81
2021/12/25 02:30:00;;;;;;;78.20;40.08;;;;;;;;;;5026859;28;20026;-82
2021/12/25 02:32:26;;;;;;;80.40;39.95;;;;;;;;;;5031088;28;20055;-83
2021/12/25 02:34:52;;;;;;;77.55;39.60;;;;;;;;;;5030316;28;20041;-81
2021/12/25 02:37:19;;;;;;;82.32;42.20;;;;;;;;;;5027392;28;20021;-82
2021/12/25 02:39:46;;;;;;;69.90;37.03;;;;;;;;;;5027941;28;20029;-81
2021/12/25 02:42:12;;;;;;;67.57;35.88;;;;;;;;;;5034854;28;20040;-83
2021/12/25 02:44:39;;;;;;;74.93;37.33;;;;;;;;;;5029097;28;20069;-81
2021/12/25 02:47:15;;;;;;;67.88;35.47;;;;;;;;;;5033773;28;20388;-82
2021/12/25 02:49:41;;;;;;;68.88;34.03;;;;;;;;;;5009078;28;20042;-83
2021/12/25 02:52:08;;;;;;;65.63;33.75;;;;;;;;;;5033533;28;20026;-83
2021/12/25 02:54:35;;;;;;;68.13;33.88;;;;;;;;;;5015343;28;20452;-82
2021/12/25 02:57:02;;;;;;;61.75;33.83;;;;;;;;;;5014724;28;20479;-83
2021/12/25 02:59:28;;;;;;;63.10;32.83;;;;;;;;;;5010265;28;20026;-82
2021/12/25 03:01:54;;;;;;;56.97;30.20;;;;;;;;;;5020171;28;20037;-82
2021/12/25 03:04:21;;;;;;;54.05;30.10;;;;;;;;;;5025445;28;20029;-82
2021/12/25 03:06:47;;;;;;;52.30;29.45;;;;;;;;;;5036464;28;20056;-82
2021/12/25 03:09:13;;;;;;;52.63;27.17;;;;;;;;;;5029204;28;20026;-83
2021/12/25 03:11:40;;;;;;;45.92;26.98;;;;;;;;;;5018899;28;20029;-82
2021/12/25 03:14:30;;;;;;;47.15;24.83;;;;;;;;;;5009463;28;20029;-82
2021/12/25 03:16:56;;;;;;;41.28;23.38;;;;;;;;;;5024265;28;20068;-83
2021/12/25 03:19:29;;;;;;;38.50;21.63;;;;;;;;;;5026402;28;20025;-82
2021/12/25 03:21:57;;;;;;;39.63;22.13;;;;;;;;;;5031996;28;20131;-83
2021/12/25 03:24:24;;;;;;;40.50;21.65;;;;;;;;;;5034375;28;20388;-84
2021/12/25 03:26:53;;;;;;;41.55;21.17;;;;;;;;;;5049884;28;20112;-84
2021/12/25 03:29:19;;;;;;;37.20;20.65;;;;;;;;;;5026375;28;20034;-83
2021/12/25 03:31:46;;;;;;;40.42;19.20;;;;;;;;;;5029154;28;20033;-82
2021/12/25 03:34:12;;;;;;;37.10;19.30;;;;;;;;;;5027666;28;20032;-83
2021/12/25 03:36:39;;;;;;;42.42;21.00;;;;;;;;;;5017855;28;20037;-82
2021/12/25 03:39:06;;;;;;;40.47;18.58;;;;;;;;;;5033554;28;20101;-85
2021/12/25 03:41:33;;;;;;;34.10;16.23;;;;;;;;;;5015362;28;20086;-83
2021/12/25 03:44:00;;;;;;;49.47;17.52;;;;;;;;;;5032772;28;20041;-83
2021/12/25 03:46:29;;;;;;;41.10;19.25;;;;;;;;;;5029027;28;20022;-82
2021/12/25 03:49:03;;;;;;;36.30;19.92;;;;;;;;;;5031405;28;20512;-82
2021/12/25 03:59:52;;;;;;;43.08;16.70;;;;;;;;;;5029288;28;20041;-83
2021/12/25 04:02:25;;;;;;;38.25;16.20;;;;;;;;;;5009502;28;20037;-83
2021/12/25 04:04:51;;;;;;;36.67;15.60;;;;;;;;;;5012300;28;20068;-82
2021/12/25 04:10:06;;;;;;;34.88;14.60;;;;;;;;;;5030326;28;20110;-83
2021/12/25 04:12:33;;;;;;;29.25;15.25;;;;;;;;;;5012501;28;20516;-82
2021/12/25 04:14:59;;;;;;;41.35;16.88;;;;;;;;;;5028569;28;20025;-82
2021/12/25 04:17:25;;;;;;;52.88;17.85;;;;;;;;;;5025581;28;20470;-82
2021/12/25 04:19:52;;;;;;;44.80;18.10;;;;;;;;;;5023874;28;20025;-83
2021/12/25 04:22:26;;;;;;;46.85;18.08;;;;;;;;;;5022086;28;20074;-83
2021/12/25 04:24:53;;;;;;;42.75;17.80;;;;;;;;;;5007056;28;20468;-83
2021/12/25 04:27:20;;;;;;;37.85;16.77;;;;;;;;;;5024018;28;20026;-83
2021/12/25 04:30:03;;;;;;;33.17;14.88;;;;;;;;;;5020153;28;20144;-81
2021/12/25 04:32:58;;;;;;;29.35;13.07;;;;;;;;;;5025712;28;20034;-82
2021/12/25 05:05:04;;;;;;;20.33;9.50;;;;;;;;;;5031915;28;20037;-83
2021/12/25 05:07:31;;;;;;;23.83;10.43;;;;;;;;;;5024989;28;20510;-81
2021/12/25 05:09:58;;;;;;;21.52;11.05;;;;;;;;;;5028585;28;20033;-84
2021/12/25 05:12:25;;;;;;;19.95;11.05;;;;;;;;;;5029039;28;20040;-83
2021/12/25 05:14:51;;;;;;;20.58;11.05;;;;;;;;;;5017782;28;20132;-83
2021/12/25 05:17:17;;;;;;;31.45;11.95;;;;;;;;;;5028609;28;20485;-81
2021/12/25 05:19:45;;;;;;;26.23;12.43;;;;;;;;;;5028569;28;20021;-83
2021/12/25 05:22:14;;;;;;;25.45;11.10;;;;;;;;;;5030045;28;20069;-83
2021/12/25 05:24:40;;;;;;;22.00;12.57;;;;;;;;;;5027723;28;20026;-84
2021/12/25 05:27:07;;;;;;;31.63;14.55;;;;;;;;;;5009197;28;20033;-84
2021/12/25 05:29:34;;;;;;;32.38;15.73;;;;;;;;;;5030067;28;20508;-83
2021/12/25 05:32:01;;;;;;;34.67;16.60;;;;;;;;;;5025252;28;20116;-82
2021/12/25 05:34:27;;;;;;;25.80;12.80;;;;;;;;;;5022749;28;20018;-83
2021/12/25 05:36:54;;;;;;;20.60;12.02;;;;;;;;;;5026527;28;20044;-83
2021/12/25 05:39:21;;;;;;;26.83;13.02;;;;;;;;;;5008212;28;20028;-82
2021/12/25 05:41:47;;;;;;;22.50;12.57;;;;;;;;;;5025377;28;20026;-83
2021/12/25 05:44:13;;;;;;;31.52;14.73;;;;;;;;;;5025443;28;20268;-83
2021/12/25 05:46:40;;;;;;;34.33;16.38;;;;;;;;;;5027476;28;20531;-82
2021/12/25 05:49:07;;;;;;;39.42;15.20;;;;;;;;;;5030391;28;20075;-82
2021/12/25 05:51:33;;;;;;;44.05;14.90;;;;;;;;;;5024895;28;20057;-82
2021/12/25 05:53:59;;;;;;;32.42;13.75;;;;;;;;;;5010625;28;20064;-82
2021/12/25 05:56:26;;;;;;;26.23;10.80;;;;;;;;;;5031023;28;20067;-84
2021/12/25 05:58:52;;;;;;;24.50;12.02;;;;;;;;;;5028206;28;20013;-84
2021/12/25 06:01:19;;;;;;;26.00;13.85;;;;;;;;;;5025869;28;20025;-82
2021/12/25 06:03:45;;;;;;;27.38;13.32;;;;;;;;;;5025035;28;20021;-82
2021/12/25 06:06:11;;;;;;;28.08;14.07;;;;;;;;;;5030073;28;21619;-82
2021/12/25 06:08:38;;;;;;;36.20;17.10;;;;;;;;;;5027810;28;20022;-83
2021/12/25 06:11:04;;;;;;;34.33;19.88;;;;;;;;;;5023598;28;20055;-82
2021/12/25 06:13:31;;;;;;;32.70;16.65;;;;;;;;;;5027052;28;20033;-83
2021/12/25 06:15:58;;;;;;;27.85;16.35;;;;;;;;;;5024837;28;20022;-83
2021/12/25 06:18:24;;;;;;;33.17;16.80;;;;;;;;;;5026009;28;20124;-85
2021/12/25 06:20:50;;;;;;;23.42;15.55;;;;;;;;;;5034615;28;20468;-82
2021/12/25 06:23:17;;;;;;;33.60;17.30;;;;;;;;;;5038103;28;20029;-82
2021/12/25 06:25:43;;;;;;;34.10;19.83;;;;;;;;;;5016762;28;20485;-82
2021/12/25 06:28:09;;;;;;;38.05;21.65;;;;;;;;;;5028405;28;20551;-82
2021/12/25 06:30:38;;;;;;;34.17;21.23;;;;;;;;;;5027116;28;20032;-84
2021/12/25 06:33:05;;;;;;;43.95;22.88;;;;;;;;;;5026128;28;20121;-83
2021/12/25 06:35:32;;;;;;;43.90;22.20;;;;;;;;;;5027421;28;20087;-84
2021/12/25 06:37:58;;;;;;;40.33;19.95;;;;;;;;;;5032344;28;20018;-82
2021/12/25 06:40:25;;;;;;;38.88;22.00;;;;;;;;;;5031108;28;20104;-84
2021/12/25 06:42:51;;;;;;;41.40;20.15;;;;;;;;;;5014013;28;20025;-84
2021/12/25 06:45:17;;;;;;;40.00;24.02;;;;;;;;;;5015872;28;20029;-83
2021/12/25 06:47:44;;;;;;;52.20;25.85;;;;;;;;;;5031545;28;20476;-83
2021/12/25 06:50:11;;;;;;;39.95;24.15;;;;;;;;;;5032464;28;20040;-83
2021/12/25 06:52:37;;;;;;;41.90;21.80;;;;;;;;;;5026242;28;20025;-82
2021/12/25 06:55:05;;;;;;;45.63;22.83;;;;;;;;;;5028256;28;20026;-84
2021/12/25 06:57:31;;;;;;;39.42;20.15;;;;;;;;;;5032796;28;20033;-82
2021/12/25 06:59:58;;;;;;;42.30;22.80;;;;;;;;;;5031075;28;20036;-83
2021/12/25 07:02:24;;;;;;;45.67;24.52;;;;;;;;;;5016007;28;20167;-84
2021/12/25 07:04:51;;;;;;;39.90;22.55;;;;;;;;;;5032316;28;20049;-83
2021/12/25 07:07:18;;;;;;;42.97;22.08;;;;;;;;;;5015545;28;20057;-84
2021/12/25 07:09:44;;;;;;;40.85;23.75;;;;;;;;;;5035089;28;20029;-82
2021/12/25 07:12:10;;;;;;;43.33;20.63;;;;;;;;;;5032292;28;20110;-82
2021/12/25 07:14:37;;;;;;;48.22;21.02;;;;;;;;;;5026235;28;20022;-83
2021/12/25 07:17:03;;;;;;;52.20;20.73;;;;;;;;;;5024138;28;20141;-83
2021/12/25 07:19:30;;;;;;;40.80;19.70;;;;;;;;;;5031132;28;20169;-84
2021/12/25 07:21:56;;;;;;;47.42;19.90;;;;;;;;;;5026496;28;20037;-82
2021/12/25 07:24:22;;;;;;;48.33;20.83;;;;;;;;;;5028728;28;20013;-83
2021/12/25 07:26:49;;;;;;;40.72;20.38;;;;;;;;;;5028557;28;20045;-83
2021/12/25 07:29:15;;;;;;;41.63;19.30;;;;;;;;;;5011171;28;20108;-83
2021/12/25 07:31:41;;;;;;;48.78;20.15;;;;;;;;;;5013240;28;20034;-81
2021/12/25 07:34:08;;;;;;;42.15;18.05;;;;;;;;;;5022240;28;20030;-83
2021/12/25 07:36:34;;;;;;;43.75;19.52;;;;;;;;;;5028389;28;20469;-82
2021/12/25 07:39:01;;;;;;;47.45;20.23;;;;;;;;;;5033053;28;20032;-82
2021/12/25 07:41:27;;;;;;;41.42;18.85;;;;;;;;;;5024360;28;20544;-84
2021/12/25 07:43:53;;;;;;;50.20;17.85;;;;;;;;;;5009385;28;20030;-82
2021/12/25 07:46:22;;;;;;;37.03;17.23;;;;;;;;;;5012936;28;20033;-83
2021/12/25 07:48:48;;;;;;;32.53;15.32;;;;;;;;;;5028113;28;20040;-82
2021/12/25 07:51:14;;;;;;;38.80;17.55;;;;;;;;;;5023732;28;20034;-82
2021/12/25 07:53:43;;;;;;;35.35;16.10;;;;;;;;;;5030624;28;20516;-83
2021/12/25 07:56:10;;;;;;;36.63;16.95;;;;;;;;;;5026932;28;20067;-83
2021/12/25 07:58:36;;;;;;;34.28;16.98;;;;;;;;;;5029458;28;20033;-83
2021/12/25 08:01:03;;;;;;;35.55;17.95;;;;;;;;;;5033426;28;20026;-82
2021/12/25 08:03:29;;;;;;;32.70;16.33;;;;;;;;;;5009878;28;20053;-82
2021/12/25 08:05:55;;;;;;;32.60;17.38;;;;;;;;;;5045429;28;20049;-81
2021/12/25 08:08:22;;;;;;;43.13;23.20;;;;;;;;;;5034630;28;20029;-81
2021/12/25 08:10:48;;;;;;;47.53;25.15;;;;;;;;;;5036680;28;20025;-82
2021/12/25 08:13:16;;;;;;;50.92;28.25;;;;;;;;;;5038054;28;20029;-82
2021/12/25 08:15:43;;;;;;;47.15;26.85;;;;;;;;;;5035396;28;20084;-80
2021/12/25 08:18:10;;;;;;;60.15;32.63;;;;;;;;;;5036033;28;20124;-83
2021/12/25 08:20:37;;;;;;;67.72;38.80;;;;;;;;;;5033917;28;20021;-81
2021/12/25 08:23:03;;;;;;;101.97;55.33;;;;;;;;;;5029582;28;20030;-79
2021/12/25 08:25:30;;;;;;;108.93;62.55;;;;;;;;;;5012890;28;20316;-81
2021/12/25 08:27:56;;;;;;;127.55;75.97;;;;;;;;;;5024478;28;20033;-83
2021/12/25 08:30:23;;;;;;;139.52;84.00;;;;;;;;;;5028134;28;20037;-83
2021/12/25 08:32:55;;;;;;;127.97;81.90;;;;;;;;;;5026114;28;20064;-83
2021/12/25 08:35:23;;;;;;;132.65;79.18;;;;;;;;;;5003636;28;20469;-83
2021/12/25 08:37:50;;;;;;;137.00;84.03;;;;;;;;;;5006640;28;20168;-82
2021/12/25 08:40:16;;;;;;;144.48;88.60;;;;;;;;;;5028084;28;20420;-83
2021/12/25 08:42:51;;;;;;;128.50;87.22;;;;;;;;;;5028686;28;20124;-83
2021/12/25 08:48:18;;;;;;;139.93;85.82;;;;;;;;;;4991222;28;20088;-83
2021/12/25 08:50:48;;;;;;;135.43;87.18;;;;;;;;;;5002634;28;20056;-82
2021/12/25 08:53:14;;;;;;;139.50;88.07;;;;;;;;;;5023113;28;20021;-83
2021/12/25 08:55:41;;;;;;;130.23;83.38;;;;;;;;;;5029790;28;20044;-83
2021/12/25 08:58:07;;;;;;;138.45;86.55;;;;;;;;;;5024824;28;20071;-83
2021/12/25 09:00:33;;;;;;;144.98;91.57;;;;;;;;;;5014779;28;20022;-82
2021/12/25 09:03:01;;;;;;;145.55;92.20;;;;;;;;;;5033741;28;20484;-83
2021/12/25 09:05:27;;;;;;;141.88;91.32;;;;;;;;;;5029211;28;20029;-84
2021/12/25 09:07:54;;;;;;;146.20;92.93;;;;;;;;;;5028407;28;20396;-83
2021/12/25 09:10:21;;;;;;;147.38;94.03;;;;;;;;;;5020992;28;20040;-83
2021/12/25 09:12:49;;;;;;;153.10;91.35;;;;;;;;;;5030975;28;20506;-82
2021/12/25 09:15:16;;;;;;;143.15;91.32;;;;;;;;;;5019838;28;20017;-82
2021/12/25 09:17:42;;;;;;;134.57;89.40;;;;;;;;;;5039183;28;20045;-81
2021/12/25 09:20:10;;;;;;;144.02;90.47;;;;;;;;;;5024623;28;20045;-83
2021/12/25 09:22:37;;;;;;;146.23;90.45;;;;;;;;;;5024960;28;20033;-83
2021/12/25 09:25:04;;;;;;;134.57;89.10;;;;;;;;;;5009652;28;20120;-82
2021/12/25 09:27:30;;;;;;;142.60;88.93;;;;;;;;;;5023915;28;20078;-82
2021/12/25 09:29:56;;;;;;;127.78;82.85;;;;;;;;;;5011418;28;20067;-82
2021/12/25 09:32:23;;;;;;;140.10;86.45;;;;;;;;;;5027461;28;20165;-83
2021/12/25 09:34:49;;;;;;;133.57;86.40;;;;;;;;;;5025728;28;20026;-82
2021/12/25 09:37:15;;;;;;;138.40;84.80;;;;;;;;;;5022993;28;20034;-83
2021/12/25 09:39:42;;;;;;;126.18;80.35;;;;;;;;;;5027504;28;20038;-83
2021/12/25 09:42:09;;;;;;;127.28;78.95;;;;;;;;;;5005462;28;20022;-83
2021/12/25 09:44:36;;;;;;;123.30;79.20;;;;;;;;;;5011886;28;20021;-83
2021/12/25 09:47:04;;;;;;;133.82;79.10;;;;;;;;;;5026220;28;20068;-83
2021/12/25 09:49:31;;;;;;;132.77;80.80;;;;;;;;;;5028926;28;20018;-82
2021/12/25 09:51:58;;;;;;;139.73;83.50;;;;;;;;;;5027552;28;20067;-83
2021/12/25 09:54:24;;;;;;;126.38;86.97;;;;;;;;;;5011684;28;20500;-82
2021/12/25 09:56:52;;;;;;;129.73;85.93;;;;;;;;;;5030827;28;20099;-83
2021/12/25 09:59:18;;;;;;;124.57;80.53;;;;;;;;;;5010671;28;20052;-83
2021/12/25 10:01:46;;;;;;;130.38;79.97;;;;;;;;;;5024647;28;20028;-82
2021/12/25 10:04:29;;;;;;;126.05;78.90;;;;;;;;;;5024267;28;20061;-82
2021/12/25 10:06:56;;;;;;;112.25;73.47;;;;;;;;;;5001762;28;20079;-82
2021/12/25 10:09:24;;;;;;;117.13;74.70;;;;;;;;;;5028973;28;20025;-82
2021/12/25 10:12:00;;;;;;;105.70;69.03;;;;;;;;;;5029013;28;20034;-82
2021/12/25 10:14:27;;;;;;;109.20;68.38;;;;;;;;;;5028486;28;20056;-82
2021/12/25 10:16:53;;;;;;;104.97;67.00;;;;;;;;;;5029714;28;20115;-82
2021/12/25 10:19:21;;;;;;;106.95;67.05;;;;;;;;;;5013678;28;20443;-84
2021/12/25 10:21:48;;;;;;;100.97;65.00;;;;;;;;;;5032374;28;20021;-82
2021/12/25 10:24:24;;;;;;;105.13;67.15;;;;;;;;;;5029279;28;20030;-85
2021/12/25 10:26:51;;;;;;;108.85;67.68;;;;;;;;;;5032794;28;20148;-85
2021/12/25 10:29:28;;;;;;;112.13;69.00;;;;;;;;;;5016032;28;20128;-82
2021/12/25 10:31:58;;;;;;;129.82;74.32;;;;;;;;;;5032955;28;20032;-83
2021/12/25 10:34:26;;;;;;;112.22;71.80;;;;;;;;;;5012911;28;20026;-83
2021/12/25 10:36:52;;;;;;;117.25;75.68;;;;;;;;;;5030859;28;20014;-83
2021/12/25 10:39:23;;;;;;;117.07;74.20;;;;;;;;;;5031652;28;20040;-83
2021/12/25 10:42:03;;;;;;;120.97;75.68;;;;;;;;;;5029496;28;20033;-83
2021/12/25 10:44:32;;;;;;;116.63;75.82;;;;;;;;;;5030508;28;20026;-82
2021/12/25 10:47:06;;;;;;;125.72;77.18;;;;;;;;;;5031330;28;20036;-81
2021/12/25 10:49:33;;;;;;;115.88;74.78;;;;;;;;;;5011506;28;20058;-84
2021/12/25 10:52:15;;;;;;;113.72;73.93;;;;;;;;;;5035422;28;20036;-85
2021/12/25 10:54:46;;;;;;;112.53;73.53;;;;;;;;;;5027694;28;20030;-81
2021/12/25 10:57:32;;;;;;;125.25;75.30;;;;;;;;;;5013490;28;20021;-85
2021/12/25 10:59:58;;;;;;;119.50;76.20;;;;;;;;;;5035732;28;20029;-84
2021/12/25 11:02:29;;;;;;;125.50;78.80;;;;;;;;;;5011283;28;20029;-84
2021/12/25 11:04:55;;;;;;;119.95;78.60;;;;;;;;;;5033695;28;20503;-83
2021/12/25 11:07:22;;;;;;;139.23;83.05;;;;;;;;;;5032279;28;20060;-83
2021/12/25 11:10:07;;;;;;;132.02;84.18;;;;;;;;;;5030379;28;20053;-82
2021/12/25 11:12:34;;;;;;;131.77;82.43;;;;;;;;;;5010094;28;20029;-82
2021/12/25 11:15:10;;;;;;;129.30;84.07;;;;;;;;;;5031494;28;20376;-83
2021/12/25 11:17:39;;;;;;;136.98;82.43;;;;;;;;;;5030403;28;20042;-83
2021/12/25 11:20:05;;;;;;;135.48;82.90;;;;;;;;;;5013611;28;20109;-82
2021/12/25 11:22:52;;;;;;;133.77;82.82;;;;;;;;;;5029377;28;20480;-82
2021/12/25 11:25:19;;;;;;;133.27;84.38;;;;;;;;;;5027137;28;20032;-82
2021/12/25 11:27:46;;;;;;;138.77;86.65;;;;;;;;;;5027620;28;20079;-83
2021/12/25 11:30:13;;;;;;;149.50;91.30;;;;;;;;;;5029146;28;20120;-82
2021/12/25 11:32:39;;;;;;;143.32;86.30;;;;;;;;;;5030003;28;20133;-83
2021/12/25 11:35:06;;;;;;;149.68;90.60;;;;;;;;;;5026709;28;20447;-83
2021/12/25 11:37:32;;;;;;;153.30;86.82;;;;;;;;;;5008169;28;20022;-82
2021/12/25 11:39:59;;;;;;;143.18;84.07;;;;;;;;;;5010128;28;20119;-82
2021/12/25 11:42:28;;;;;;;147.38;86.15;;;;;;;;;;5026291;28;20048;-81
2021/12/25 11:44:55;;;;;;;144.82;85.43;;;;;;;;;;5011411;28;20079;-82
2021/12/25 11:47:32;;;;;;;147.30;86.18;;;;;;;;;;5008514;28;20030;-83
2021/12/25 11:50:00;;;;;;;149.00;86.82;;;;;;;;;;5025176;28;20423;-81
2021/12/25 11:52:36;;;;;;;158.13;93.28;;;;;;;;;;5009896;28;20029;-82
2021/12/25 11:55:34;;;;;;;165.88;97.88;;;;;;;;;;5007799;28;20025;-83
2021/12/25 12:00:41;;;;;;;180.18;103.13;;;;;;;;;;5027031;28;20548;-83
2021/12/25 12:03:07;;;;;;;184.88;103.28;;;;;;;;;;5010455;28;20053;-83
2021/12/25 12:05:35;;;;;;;180.00;108.45;;;;;;;;;;5035927;28;20029;-83
2021/12/25 12:08:03;;;;;;;193.40;111.55;;;;;;;;;;5033122;28;20112;-82
2021/12/25 12:10:45;;;;;;;177.40;108.50;;;;;;;;;;5031478;28;20048;-82
2021/12/25 12:13:18;;;;;;;179.85;109.70;;;;;;;;;;5011644;28;20048;-83
2021/12/25 12:15:49;;;;;;;179.05;106.13;;;;;;;;;;5025823;28;20041;-83
2021/12/25 12:18:28;;;;;;;185.07;106.97;;;;;;;;;;5026977;28;20077;-82
2021/12/25 12:20:59;;;;;;;181.85;106.00;;;;;;;;;;5024303;28;20025;-82
2021/12/25 12:24:08;;;;;;;181.73;103.50;;;;;;;;;;5021912;28;20052;-82
2021/12/25 12:26:37;;;;;;;173.68;97.55;;;;;;;;;;5023391;28;20067;-83
2021/12/25 12:29:03;;;;;;;167.70;93.55;;;;;;;;;;5009573;28;20380;-83
2021/12/25 12:31:46;;;;;;;160.00;92.40;;;;;;;;;;5027772;28;20398;-83
2021/12/25 12:34:31;;;;;;;173.65;95.72;;;;;;;;;;5008431;28;20116;-83
2021/12/25 12:37:23;;;;;;;160.48;89.00;;;;;;;;;;5023094;28;20110;-85
2021/12/25 12:40:02;;;;;;;145.60;80.88;;;;;;;;;;5025512;28;20354;-82
2021/12/25 12:42:50;;;;;;;151.25;82.32;;;;;;;;;;5027264;28;20030;-83
2021/12/25 12:45:18;;;;;;;137.60;79.07;;;;;;;;;;5027753;28;20021;-83
2021/12/25 12:48:03;;;;;;;141.75;77.10;;;;;;;;;;5009780;28;20037;-82
2021/12/25 12:50:33;;;;;;;143.68;81.60;;;;;;;;;;5025562;28;20025;-83
2021/12/25 12:53:00;;;;;;;152.25;83.72;;;;;;;;;;5025418;28;20555;-81
2021/12/25 12:55:28;;;;;;;154.13;85.45;;;;;;;;;;5015272;28;20057;-82
2021/12/25 12:58:08;;;;;;;167.23;94.53;;;;;;;;;;5011793;28;20030;-82
2021/12/25 13:00:34;;;;;;;177.88;99.75;;;;;;;;;;5013032;28;20025;-83
2021/12/25 13:03:01;;;;;;;170.90;99.75;;;;;;;;;;5013344;28;20128;-82
2021/12/25 13:05:31;;;;;;;172.95;101.75;;;;;;;;;;5031380;28;20025;-83
2021/12/25 13:08:00;;;;;;;180.25;104.30;;;;;;;;;;5026948;28;20054;-81
2021/12/25 13:10:47;;;;;;;182.23;102.80;;;;;;;;;;5022883;28;20049;-82
2021/12/25 13:13:14;;;;;;;189.68;107.65;;;;;;;;;;5027079;28;20041;-84
2021/12/25 13:15:42;;;;;;;183.30;104.28;;;;;;;;;;5009895;28;20034;-83
2021/12/25 13:18:09;;;;;;;189.63;107.60;;;;;;;;;;5025859;28;20488;-82
2021/12/25 13:20:47;;;;;;;195.27;107.35;;;;;;;;;;5026729;28;20021;-81
2021/12/25 13:23:20;;;;;;;188.95;106.53;;;;;;;;;;5025066;28;20096;-85
2021/12/25 13:26:06;;;;;;;185.55;101.88;;;;;;;;;;5028784;28;20087;-84
2021/12/25 13:28:34;;;;;;;186.55;101.95;;;;;;;;;;5012941;28;20056;-83
2021/12/25 13:31:01;;;;;;;181.48;105.68;;;;;;;;;;5027005;28;20040;-83
2021/12/25 13:33:29;;;;;;;184.30;103.95;;;;;;;;;;5029329;28;20025;-82
2021/12/25 13:36:01;;;;;;;185.55;104.47;;;;;;;;;;4994415;28;20055;-82
2021/12/25 13:38:28;;;;;;;186.60;103.43;;;;;;;;;;5027122;28;20054;-83
2021/12/25 13:40:55;;;;;;;183.25;102.20;;;;;;;;;;5030677;28;20041;-82
2021/12/25 13:43:22;;;;;;;182.57;98.95;;;;;;;;;;5012370;28;20484;-83
2021/12/25 13:45:55;;;;;;;190.07;101.05;;;;;;;;;;5029581;28;20041;-82
2021/12/25 13:48:21;;;;;;;188.23;104.20;;;;;;;;;;5026031;28;20038;-83
2021/12/25 13:50:50;;;;;;;189.27;102.63;;;;;;;;;;5032508;28;20029;-82
2021/12/25 13:53:19;;;;;;;191.05;105.60;;;;;;;;;;5030888;28;20084;-84
2021/12/25 13:55:49;;;;;;;198.15;105.88;;;;;;;;;;5018149;28;20049;-81
2021/12/25 13:58:17;;;;;;;197.73;102.68;;;;;;;;;;5031943;28;20373;-85
2021/12/25 14:00:48;;;;;;;196.77;102.90;;;;;;;;;;5035558;28;20119;-84
2021/12/25 14:03:17;;;;;;;193.77;97.97;;;;;;;;;;5032548;28;20116;-80
2021/12/25 14:05:45;;;;;;;190.15;102.35;;;;;;;;;;5034902;28;20033;-82
2021/12/25 14:08:12;;;;;;;198.77;110.25;;;;;;;;;;5031850;28;20129;-82
2021/12/25 14:10:39;;;;;;;191.40;103.00;;;;;;;;;;5014977;28;20033;-85
2021/12/25 14:13:12;;;;;;;188.90;100.28;;;;;;;;;;5028893;28;20036;-82
2021/12/25 14:15:40;;;;;;;190.35;100.25;;;;;;;;;;5032759;28;20025;-81
2021/12/25 14:18:07;;;;;;;189.88;98.32;;;;;;;;;;5014671;28;20049;-84
2021/12/25 14:20:35;;;;;;;171.10;88.93;;;;;;;;;;5013682;28;20289;-83
2021/12/25 14:23:01;;;;;;;174.60;90.45;;;;;;;;;;5022321;28;20029;-82
2021/12/25 14:25:33;;;;;;;172.38;90.72;;;;;;;;;;5008267;28;20029;-82
2021/12/25 14:28:03;;;;;;;177.23;93.13;;;;;;;;;;5031726;28;20034;-82
2021/12/25 14:30:30;;;;;;;175.32;91.38;;;;;;;;;;5011994;28;20036;-82
2021/12/25 14:32:57;;;;;;;180.20;94.22;;;;;;;;;;5029231;28;20524;-81
2021/12/25 14:35:23;;;;;;;179.68;96.05;;;;;;;;;;5029542;28;20022;-82
2021/12/25 14:37:54;;;;;;;170.93;91.50;;;;;;;;;;5034780;28;20033;-82
2021/12/25 14:40:22;;;;;;;191.45;99.53;;;;;;;;;;5034419;28;20030;-84
2021/12/25 14:42:50;;;;;;;191.98;98.55;;;;;;;;;;5026751;28;20029;-83
2021/12/25 14:45:17;;;;;;;191.02;100.63;;;;;;;;;;5028403;28;20072;-83
2021/12/25 14:47:48;;;;;;;203.68;104.78;;;;;;;;;;5029643;28;20507;-83
2021/12/25 14:50:20;;;;;;;198.25;107.97;;;;;;;;;;5026436;28;20022;-81
2021/12/25 14:52:46;;;;;;;212.75;108.25;;;;;;;;;;5011640;28;20610;-82
2021/12/25 14:55:16;;;;;;;205.85;108.90;;;;;;;;;;5030673;28;20022;-82
2021/12/25 14:57:43;;;;;;;210.77;105.22;;;;;;;;;;5009835;28;20041;-84
2021/12/25 15:00:10;;;;;;;213.50;105.97;;;;;;;;;;5028859;28;20036;-82
2021/12/25 15:02:37;;;;;;;200.88;109.13;;;;;;;;;;5030533;28;20025;-83
2021/12/25 15:05:03;;;;;;;204.07;110.63;;;;;;;;;;5013080;28;20381;-83
2021/12/25 15:07:31;;;;;;;202.05;106.20;;;;;;;;;;5016519;28;20044;-82
2021/12/25 15:09:58;;;;;;;204.13;108.85;;;;;;;;;;5027465;28;20025;-82
2021/12/25 15:12:29;;;;;;;206.25;110.65;;;;;;;;;;5031992;28;20064;-83
2021/12/25 15:15:16;;;;;;;213.27;113.28;;;;;;;;;;5031834;28;20018;-82
2021/12/25 15:17:44;;;;;;;242.63;122.10;;;;;;;;;;5025623;28;20050;-83
2021/12/25 15:20:12;;;;;;;219.57;113.57;;;;;;;;;;5030069;28;20037;-83
2021/12/25 15:22:39;;;;;;;234.95;120.65;;;;;;;;;;5011085;28;20392;-83
2021/12/25 15:25:11;;;;;;;227.18;116.47;;;;;;;;;;5027884;28;20477;-82
2021/12/25 15:27:39;;;;;;;204.77;107.90;;;;;;;;;;5030026;28;20033;-83
2021/12/25 15:30:16;;;;;;;237.40;124.20;;;;;;;;;;5034156;28;20409;-83
2021/12/25 15:32:45;;;;;;;247.52;125.30;;;;;;;;;;5030170;28;20033;-83